createdAt,value
2022-10-22T00:02:24.727Z,97984.81
2022-10-22T00:04:51.552Z,97989.94
2022-10-22T00:07:18.849Z,97991.66
2022-10-22T00:09:46.378Z,98000.56
2022-10-22T00:12:15.155Z,98007.31
2022-10-22T00:14:43.020Z,98009.66
2022-10-22T00:17:11.572Z,98015.06
2022-10-22T00:19:39.121Z,98019.75
2022-10-22T00:22:06.646Z,98020.72
2022-10-22T00:24:34.794Z,98014.47
2022-10-22T00:27:02.201Z,98016.44
2022-10-22T00:29:28.912Z,98008.06
2022-10-22T00:34:27.587Z,97994.06
2022-10-22T00:36:54.752Z,97985.28
2022-10-22T00:39:25.092Z,97986.50
2022-10-22T00:41:56.588Z,97982.41
2022-10-22T00:45:20.955Z,97987.09
2022-10-22T00:48:01.732Z,97988.84
2022-10-22T00:50:37.695Z,97981.88
2022-10-22T00:53:10.660Z,97976.78
2022-10-22T00:55:39.027Z,97972.19
2022-10-22T00:58:05.848Z,97968.13
2022-10-22T01:00:32.790Z,97975.22
2022-10-22T01:02:59.938Z,97965.06
2022-10-22T01:05:39.218Z,97953.56
2022-10-22T01:08:16.159Z,97959.09
2022-10-22T01:11:06.893Z,97972.56
2022-10-22T01:14:00.222Z,97966.56
2022-10-22T01:17:10.386Z,97956.28
2022-10-22T01:20:17.732Z,97965.84
2022-10-22T01:23:33.512Z,97956.06
2022-10-22T01:26:42.277Z,97947.28
2022-10-22T01:29:36.226Z,97943.03
2022-10-22T01:32:12.673Z,97949.91
2022-10-22T01:34:46.851Z,97956.81
2022-10-22T01:37:17.081Z,97950.25
2022-10-22T01:39:47.417Z,97955.78
2022-10-22T01:42:14.771Z,97957.00
2022-10-22T01:44:42.572Z,97960.22
2022-10-22T01:47:43.153Z,97957.19
2022-10-22T01:50:30.819Z,97962.13
2022-10-22T01:53:17.794Z,97968.59
2022-10-22T01:56:04.098Z,97968.72
2022-10-22T01:58:57.868Z,97963.50
2022-10-22T02:01:47.138Z,97974.09
2022-10-22T02:04:49.979Z,97963.56
2022-10-22T02:07:24.311Z,97958.84
2022-10-22T02:09:54.870Z,97958.41
2022-10-22T02:12:25.466Z,97964.38
2022-10-22T02:14:54.877Z,97977.66
2022-10-22T02:17:24.074Z,97972.00
2022-10-22T02:20:01.484Z,97973.38
2022-10-22T02:22:28.878Z,97970.72
2022-10-22T02:24:56.062Z,97970.19
2022-10-22T02:27:40.162Z,97966.13
2022-10-22T02:30:11.869Z,97969.50
2022-10-22T02:33:02.768Z,97965.38
2022-10-22T02:35:31.092Z,97974.94
2022-10-22T02:37:59.886Z,97977.88
2022-10-22T02:40:28.461Z,97991.66
2022-10-22T02:42:54.903Z,97995.53
2022-10-22T02:45:22.229Z,97993.28
2022-10-22T02:47:49.392Z,97993.69
2022-10-22T02:50:16.006Z,97993.44
2022-10-22T02:52:43.001Z,97995.13
2022-10-22T02:55:09.807Z,97985.63
2022-10-22T02:57:36.703Z,97989.16
2022-10-22T03:00:06.478Z,97989.84
2022-10-22T03:02:33.090Z,97984.91
2022-10-22T03:04:59.606Z,97986.59
2022-10-22T03:07:26.391Z,98002.06
2022-10-22T03:09:52.859Z,98006.84
2022-10-22T03:12:19.315Z,98001.28
2022-10-22T03:14:45.855Z,98004.41
2022-10-22T03:17:12.471Z,98002.78
2022-10-22T03:19:38.926Z,97998.22
2022-10-22T03:22:13.431Z,98000.94
2022-10-22T03:24:47.636Z,97998.13
2022-10-22T03:27:18.321Z,98003.72
2022-10-22T03:29:46.827Z,98000.34
2022-10-22T03:32:13.972Z,97989.59
2022-10-22T03:34:40.401Z,97986.84
2022-10-22T03:37:06.993Z,97991.06
2022-10-22T03:39:35.824Z,97990.22
2022-10-22T03:42:04.850Z,97994.28
2022-10-22T03:44:32.962Z,98005.97
2022-10-22T03:47:02.444Z,98013.78
2022-10-22T03:49:29.405Z,98008.41
2022-10-22T03:51:55.879Z,98018.53
2022-10-22T03:54:22.355Z,98005.19
2022-10-22T03:56:48.807Z,98006.34
2022-10-22T03:59:15.423Z,98006.34
2022-10-22T04:01:42.023Z,97999.81
2022-10-22T04:04:08.542Z,98008.56
2022-10-22T04:06:35.002Z,98007.28
2022-10-22T04:09:02.256Z,98010.78
2022-10-22T04:11:28.812Z,98010.81
2022-10-22T04:13:55.262Z,98014.25
2022-10-22T04:16:25.168Z,98007.91
2022-10-22T04:18:54.071Z,98021.44
2022-10-22T04:21:20.587Z,98019.19
2022-10-22T04:23:50.564Z,98019.41
2022-10-22T04:26:19.368Z,98021.59
2022-10-22T04:28:48.013Z,98031.53
2022-10-22T04:31:18.709Z,98035.22
2022-10-22T04:33:45.867Z,98035.09
2022-10-22T04:36:18.345Z,98042.47
2022-10-22T04:38:47.125Z,98040.22
2022-10-22T04:41:19.673Z,98030.00
2022-10-22T04:43:47.116Z,98038.50
2022-10-22T04:46:16.351Z,98039.56
2022-10-22T04:48:46.038Z,98041.34
2022-10-22T04:51:18.047Z,98040.38
2022-10-22T04:53:46.184Z,98052.84
2022-10-22T04:56:21.157Z,98042.69
2022-10-22T04:58:50.598Z,98053.69
2022-10-22T05:01:24.137Z,98052.59
2022-10-22T05:03:54.483Z,98055.09
2022-10-22T05:06:22.774Z,98054.03
2022-10-22T05:09:01.320Z,98061.50
2022-10-22T05:11:41.544Z,98056.41
2022-10-22T05:14:09.998Z,98057.03
2022-10-22T05:16:38.133Z,98065.31
2022-10-22T05:19:06.030Z,98071.22
2022-10-22T05:21:32.907Z,98075.22
2022-10-22T05:24:00.056Z,98076.25
2022-10-22T05:26:28.373Z,98075.44
2022-10-22T05:28:55.106Z,98083.47
2022-10-22T05:31:21.632Z,98088.75
2022-10-22T05:33:48.378Z,98090.44
2022-10-22T05:36:20.086Z,98102.34
2022-10-22T05:38:47.292Z,98094.66
2022-10-22T05:41:20.459Z,98090.94
2022-10-22T05:43:47.327Z,98098.66
2022-10-22T05:46:22.158Z,98085.25
2022-10-22T05:49:02.440Z,98090.59
2022-10-22T05:51:31.648Z,98096.47
2022-10-22T05:54:01.444Z,98096.22
2022-10-22T05:56:31.766Z,98103.06
2022-10-22T05:58:59.072Z,98099.09
2022-10-22T06:01:32.697Z,98103.22
2022-10-22T06:04:02.870Z,98112.31
2022-10-22T06:06:37.176Z,98107.41
2022-10-22T06:12:10.822Z,98099.56
2022-10-22T06:14:37.304Z,98107.28
2022-10-22T06:17:03.807Z,98110.06
2022-10-22T06:19:31.186Z,98108.84
2022-10-22T06:21:57.815Z,98110.69
2022-10-22T06:24:24.303Z,98108.41
2022-10-22T06:26:52.296Z,98113.78
2022-10-22T06:29:18.913Z,98116.94
2022-10-22T06:31:45.456Z,98120.16
2022-10-22T06:34:14.435Z,98125.22
2022-10-22T06:36:42.697Z,98134.34
2022-10-22T06:39:16.998Z,98140.91
2022-10-22T06:41:43.562Z,98146.19
2022-10-22T06:44:18.090Z,98148.69
2022-10-22T06:46:45.048Z,98157.31
2022-10-22T06:49:15.820Z,98166.06
2022-10-22T06:51:42.364Z,98171.53
2022-10-22T06:54:09.330Z,98171.69
2022-10-22T06:56:35.828Z,98173.69
2022-10-22T06:59:03.441Z,98178.72
2022-10-22T07:01:33.473Z,98185.09
2022-10-22T07:04:00.807Z,98187.88
2022-10-22T07:06:29.161Z,98191.59
2022-10-22T07:08:58.251Z,98202.50
2022-10-22T07:11:44.412Z,98196.63
2022-10-22T07:14:12.072Z,98203.09
2022-10-22T07:16:39.030Z,98204.16
2022-10-22T07:19:05.887Z,98212.19
2022-10-22T07:21:32.477Z,98209.81
2022-10-22T07:23:59.546Z,98217.50
2022-10-22T07:26:30.715Z,98212.94
2022-10-22T07:28:57.351Z,98220.09
2022-10-22T07:31:23.820Z,98218.31
2022-10-22T07:33:50.397Z,98216.06
2022-10-22T07:36:17.810Z,98220.88
2022-10-22T07:38:53.815Z,98235.22
2022-10-22T07:41:20.347Z,98235.00
2022-10-22T07:43:46.829Z,98235.75
2022-10-22T07:46:13.516Z,98242.47
2022-10-22T07:48:40.069Z,98236.22
2022-10-22T07:51:06.968Z,98236.47
2022-10-22T07:53:33.755Z,98233.84
2022-10-22T07:56:00.317Z,98242.94
2022-10-22T07:58:26.779Z,98235.84
2022-10-22T08:00:57.940Z,98248.97
2022-10-22T08:03:24.490Z,98256.88
2022-10-22T08:05:52.308Z,98253.47
2022-10-22T08:08:19.049Z,98255.97
2022-10-22T08:10:48.274Z,98252.72
2022-10-22T08:13:15.621Z,98257.06
2022-10-22T08:18:14.954Z,98264.47
2022-10-22T08:20:42.569Z,98267.84
2022-10-22T08:23:09.705Z,98266.63
2022-10-22T08:25:36.465Z,98270.25
2022-10-22T08:28:03.162Z,98265.66
2022-10-22T08:30:29.765Z,98271.66
2022-10-22T08:32:56.878Z,98271.28
2022-10-22T08:35:23.414Z,98280.50
2022-10-22T08:37:49.867Z,98278.31
2022-10-22T08:40:30.156Z,98284.78
2022-10-22T08:43:22.091Z,98277.06
2022-10-22T08:46:33.727Z,98284.00
2022-10-22T08:49:13.848Z,98280.34
2022-10-22T08:51:40.631Z,98283.41
2022-10-22T08:54:44.535Z,98287.31
2022-10-22T08:57:52.435Z,98293.91
2022-10-22T09:00:27.889Z,98296.44
2022-10-22T09:03:30.879Z,98297.63
2022-10-22T09:06:11.583Z,98299.94
2022-10-22T09:08:40.426Z,98303.94
2022-10-22T09:11:23.662Z,98308.06
2022-10-22T09:13:53.862Z,98310.72
2022-10-22T09:16:57.836Z,98314.09
2022-10-22T09:19:48.044Z,98321.38
2022-10-22T09:22:55.983Z,98308.53
2022-10-22T09:25:36.142Z,98316.94
2022-10-22T09:28:03.250Z,98312.19
2022-10-22T09:30:35.461Z,98313.31
2022-10-22T09:33:05.827Z,98317.78
2022-10-22T09:35:48.811Z,98323.91
2022-10-22T09:38:18.980Z,98320.69
2022-10-22T09:40:53.070Z,98322.66
2022-10-22T09:43:20.410Z,98323.38
2022-10-22T09:45:54.925Z,98325.19
2022-10-22T09:48:34.265Z,98319.56
2022-10-22T09:51:20.402Z,98325.47
2022-10-22T09:53:59.847Z,98333.03
2022-10-22T09:57:04.377Z,98325.91
2022-10-22T09:59:38.033Z,98330.63
2022-10-22T10:02:20.218Z,98331.72
2022-10-22T10:05:03.763Z,98325.69
2022-10-22T10:07:33.843Z,98335.31
2022-10-22T10:10:01.678Z,98330.66
2022-10-22T10:12:49.989Z,98331.31
2022-10-22T10:15:36.474Z,98336.56
2022-10-22T10:18:45.758Z,98340.50
2022-10-22T10:21:48.731Z,98339.94
2022-10-22T10:24:51.884Z,98331.16
2022-10-22T10:27:26.917Z,98333.81
2022-10-22T10:30:14.093Z,98343.34
2022-10-22T10:33:22.523Z,98346.31
2022-10-22T10:36:12.342Z,98342.66
2022-10-22T10:39:02.639Z,98347.59
2022-10-22T10:41:40.881Z,98342.91
2022-10-22T10:44:47.422Z,98345.25
2022-10-22T10:47:56.311Z,98336.66
2022-10-22T10:51:07.679Z,98345.13
2022-10-22T10:54:30.524Z,98347.69
2022-10-22T10:57:22.123Z,98349.03
2022-10-22T11:00:15.863Z,98349.13
2022-10-22T11:02:57.421Z,98352.25
2022-10-22T11:05:58.806Z,98361.22
2022-10-22T11:08:32.804Z,98354.97
2022-10-22T11:11:21.021Z,98351.94
2022-10-22T11:14:03.237Z,98355.97
2022-10-22T11:16:47.178Z,98349.44
2022-10-22T11:19:49.819Z,98356.84
2022-10-22T11:22:27.100Z,98357.69
2022-10-22T11:25:17.477Z,98356.75
2022-10-22T11:28:10.375Z,98355.84
2022-10-22T11:30:43.183Z,98362.09
2022-10-22T11:33:21.919Z,98360.56
2022-10-22T11:35:50.658Z,98352.94
2022-10-22T11:38:25.614Z,98353.19
2022-10-22T11:41:04.557Z,98353.19
2022-10-22T11:44:03.363Z,98359.72
2022-10-22T11:46:53.486Z,98360.19
2022-10-22T11:49:41.191Z,98357.69
2022-10-22T11:52:40.020Z,98359.81
2022-10-22T11:55:51.572Z,98352.94
2022-10-22T11:58:30.691Z,98346.56
2022-10-22T12:01:03.013Z,98352.78
2022-10-22T12:03:32.373Z,98347.75
2022-10-22T12:06:04.810Z,98351.47
2022-10-22T12:08:34.251Z,98353.19
2022-10-22T12:11:33.967Z,98348.41
2022-10-22T12:14:29.595Z,98353.97
2022-10-22T12:17:14.764Z,98349.34
2022-10-22T12:19:57.420Z,98345.88
2022-10-22T12:22:32.138Z,98352.03
2022-10-22T12:25:07.533Z,98347.69
2022-10-22T12:27:38.759Z,98346.88
2022-10-22T12:30:46.306Z,98346.63
2022-10-22T12:33:22.381Z,98346.56
2022-10-22T12:35:52.911Z,98343.31
2022-10-22T12:38:23.791Z,98342.78
2022-10-22T12:40:53.942Z,98350.78
2022-10-22T12:43:27.885Z,98352.97
2022-10-22T12:45:57.643Z,98354.56
2022-10-22T12:48:28.493Z,98358.81
2022-10-22T12:50:59.537Z,98356.69
2022-10-22T12:53:31.926Z,98361.84
2022-10-22T12:56:11.594Z,98358.13
2022-10-22T12:58:57.023Z,98353.06
2022-10-22T13:01:28.026Z,98350.84
2022-10-22T13:04:21.229Z,98358.16
2022-10-22T13:06:51.548Z,98355.19
2022-10-22T13:09:27.471Z,98351.53
2022-10-22T13:12:05.655Z,98347.31
2022-10-22T13:14:37.326Z,98348.56
2022-10-22T13:17:23.767Z,98350.22
2022-10-22T13:20:02.153Z,98350.31
2022-10-22T13:22:33.904Z,98353.06
2022-10-22T13:25:23.950Z,98350.31
2022-10-22T13:28:12.555Z,98347.03
2022-10-22T13:30:51.402Z,98350.22
2022-10-22T13:33:29.136Z,98352.34
2022-10-22T13:35:57.002Z,98361.72
2022-10-22T13:38:26.561Z,98370.38
2022-10-22T13:40:53.572Z,98363.22
2022-10-22T13:43:20.805Z,98365.88
2022-10-22T13:45:52.131Z,98350.72
2022-10-22T13:48:22.248Z,98354.75
2022-10-22T13:50:50.550Z,98353.66
2022-10-22T13:53:27.639Z,98359.28
2022-10-22T13:55:54.191Z,98358.34
2022-10-22T13:58:26.708Z,98357.75
2022-10-22T14:00:59.837Z,98356.75
2022-10-22T14:03:37.318Z,98353.84
2022-10-22T14:06:12.019Z,98360.34
2022-10-22T14:08:38.862Z,98361.31
2022-10-22T14:11:05.551Z,98362.63
2022-10-22T14:13:32.080Z,98360.13
2022-10-22T14:15:58.575Z,98373.13
2022-10-22T14:18:31.306Z,98360.41
2022-10-22T14:21:04.999Z,98365.63
2022-10-22T14:23:32.489Z,98365.09
2022-10-22T14:26:00.298Z,98361.78
2022-10-22T14:28:27.030Z,98373.03
2022-10-22T14:30:55.043Z,98363.22
2022-10-22T14:33:29.043Z,98362.00
2022-10-22T14:35:58.719Z,98362.84
2022-10-22T14:38:25.254Z,98353.84
2022-10-22T14:40:51.859Z,98362.69
2022-10-22T14:43:25.474Z,98362.00
2022-10-22T14:45:52.243Z,98366.34
2022-10-22T14:50:51.366Z,98375.69
2022-10-22T14:53:17.898Z,98371.06
2022-10-22T14:55:47.035Z,98368.47
2022-10-22T14:58:14.396Z,98370.13
2022-10-22T15:00:42.867Z,98371.59
2022-10-22T15:03:11.560Z,98381.97
2022-10-22T15:05:46.234Z,98389.19
2022-10-22T15:08:14.826Z,98386.53
2022-10-22T15:10:41.744Z,98389.34
2022-10-22T15:13:08.811Z,98394.69
2022-10-22T15:15:39.551Z,98394.50
2022-10-22T15:18:06.499Z,98399.53
2022-10-22T15:20:32.953Z,98392.38
2022-10-22T15:22:59.482Z,98389.19
2022-10-22T15:25:25.919Z,98399.31
2022-10-22T15:27:54.848Z,98395.72
2022-10-22T15:30:26.002Z,98386.69
2022-10-22T15:32:52.499Z,98389.22
2022-10-22T15:35:18.989Z,98396.97
2022-10-22T15:37:45.485Z,98387.84
2022-10-22T15:40:12.351Z,98388.41
2022-10-22T15:42:39.106Z,98390.44
2022-10-22T15:45:06.631Z,98389.06
2022-10-22T15:47:33.567Z,98387.75
2022-10-22T15:49:59.987Z,98389.19
2022-10-22T15:52:26.469Z,98396.38
2022-10-22T15:54:52.986Z,98396.69
2022-10-22T15:57:19.481Z,98401.91
2022-10-22T15:59:46.829Z,98405.16
2022-10-22T16:02:13.310Z,98400.41
2022-10-22T16:04:39.789Z,98397.53
2022-10-22T16:07:06.280Z,98399.09
2022-10-22T16:09:32.945Z,98401.47
2022-10-22T16:11:59.420Z,98407.72
2022-10-22T16:14:26.309Z,98410.09
2022-10-22T16:16:55.536Z,98407.34
2022-10-22T16:19:24.218Z,98402.31
2022-10-22T16:21:52.760Z,98405.09
2022-10-22T16:24:20.550Z,98420.31
2022-10-22T16:26:47.951Z,98422.41
2022-10-22T16:29:14.548Z,98422.75
2022-10-22T16:31:43.513Z,98426.97
2022-10-22T16:34:10.174Z,98424.78
2022-10-22T16:36:37.046Z,98424.78
2022-10-22T16:39:05.151Z,98413.59
2022-10-22T16:41:37.582Z,98412.63
2022-10-22T16:44:07.763Z,98419.19
2022-10-22T16:46:38.195Z,98425.63
2022-10-22T16:49:06.657Z,98421.16
2022-10-22T16:51:34.079Z,98426.34
2022-10-22T16:54:00.569Z,98422.03
2022-10-22T16:56:27.490Z,98437.88
2022-10-22T16:58:57.221Z,98439.97
2022-10-22T17:01:28.870Z,98436.19
2022-10-22T17:03:59.090Z,98442.47
2022-10-22T17:06:25.949Z,98440.41
2022-10-22T17:08:52.772Z,98437.97
2022-10-22T17:11:23.735Z,98443.00
2022-10-22T17:13:53.203Z,98441.13
2022-10-22T17:16:23.254Z,98446.66
2022-10-22T17:18:49.942Z,98443.91
2022-10-22T17:21:18.339Z,98441.41
2022-10-22T17:23:45.830Z,98450.91
2022-10-22T17:26:21.462Z,98457.28
2022-10-22T17:28:49.086Z,98461.78
2022-10-22T17:31:23.500Z,98460.03
2022-10-22T17:33:53.400Z,98466.22
2022-10-22T17:36:22.435Z,98469.50
2022-10-22T17:38:53.095Z,98460.78
2022-10-22T17:41:23.236Z,98463.97
2022-10-22T17:43:50.116Z,98473.97
2022-10-22T17:46:21.688Z,98471.28
2022-10-22T17:48:57.817Z,98471.34
2022-10-22T17:51:26.903Z,98473.59
2022-10-22T17:53:53.785Z,98477.84
2022-10-22T17:56:24.116Z,98482.84
2022-10-22T17:58:51.846Z,98481.69
2022-10-22T18:01:25.917Z,98481.97
2022-10-22T18:03:55.076Z,98489.22
2022-10-22T18:06:21.932Z,98484.00
2022-10-22T18:08:48.483Z,98485.22
2022-10-22T18:11:20.029Z,98483.00
2022-10-22T18:13:52.186Z,98478.00
2022-10-22T18:16:19.749Z,98476.56
2022-10-22T18:18:48.767Z,98470.78
2022-10-22T18:21:17.087Z,98464.56
2022-10-22T18:23:44.956Z,98478.41
2022-10-22T18:26:12.005Z,98478.09
2022-10-22T18:28:38.532Z,98478.69
2022-10-22T18:31:08.077Z,98476.06
2022-10-22T18:33:37.159Z,98477.94
2022-10-22T18:36:08.793Z,98488.31
2022-10-22T18:38:38.031Z,98484.81
2022-10-22T18:41:10.032Z,98490.72
2022-10-22T18:43:36.959Z,98483.53
2022-10-22T18:46:06.938Z,98483.41
2022-10-22T18:48:37.439Z,98484.38
2022-10-22T18:51:09.951Z,98480.91
2022-10-22T18:53:37.742Z,98484.16
2022-10-22T18:56:06.493Z,98485.44
2022-10-22T18:58:41.070Z,98487.84
2022-10-22T19:01:17.657Z,98478.03
2022-10-22T19:03:44.636Z,98488.19
2022-10-22T19:06:15.111Z,98486.06
2022-10-22T19:08:41.798Z,98491.91
2022-10-22T19:11:14.596Z,98491.53
2022-10-22T19:13:42.235Z,98488.16
2022-10-22T19:16:15.877Z,98496.75
2022-10-22T19:18:42.309Z,98493.00
2022-10-22T19:21:08.762Z,98487.81
2022-10-22T19:23:35.355Z,98488.13
2022-10-22T19:26:13.590Z,98488.28
2022-10-22T19:28:41.327Z,98487.25
2022-10-22T19:31:12.334Z,98478.63
2022-10-22T19:33:39.799Z,98475.13
2022-10-22T19:36:09.216Z,98483.38
2022-10-22T19:38:39.970Z,98486.97
2022-10-22T19:41:09.007Z,98486.13
2022-10-22T19:43:35.529Z,98478.47
2022-10-22T19:46:04.957Z,98477.19
2022-10-22T19:48:31.575Z,98477.41
2022-10-22T19:51:05.478Z,98482.22
2022-10-22T19:53:34.147Z,98479.19
2022-10-22T19:56:01.545Z,98483.91
2022-10-22T19:58:28.409Z,98480.50
2022-10-22T20:00:54.916Z,98488.91
2022-10-22T20:03:23.008Z,98482.31
2022-10-22T20:05:52.517Z,98486.69
2022-10-22T20:08:18.964Z,98486.91
2022-10-22T20:10:49.144Z,98488.38
2022-10-22T20:13:16.265Z,98492.28
2022-10-22T20:15:42.691Z,98494.19
2022-10-22T20:18:09.130Z,98492.78
2022-10-22T20:20:38.267Z,98495.31
2022-10-22T20:23:04.787Z,98498.22
2022-10-22T20:25:31.263Z,98498.56
2022-10-22T20:27:57.707Z,98508.91
2022-10-22T20:30:24.156Z,98513.00
2022-10-22T20:32:50.574Z,98515.38
2022-10-22T20:35:17.033Z,98512.44
2022-10-22T20:37:43.544Z,98511.47
2022-10-22T20:40:10.832Z,98510.81
2022-10-22T20:42:37.812Z,98518.00
2022-10-22T20:45:05.087Z,98511.63
2022-10-22T20:47:44.307Z,98511.75
2022-10-22T20:50:21.129Z,98512.94
2022-10-22T20:52:48.151Z,98508.72
2022-10-22T20:57:42.687Z,98504.69
2022-10-22T21:00:10.273Z,98509.31
2022-10-22T21:02:36.718Z,98509.63
2022-10-22T21:05:03.315Z,98509.19
2022-10-22T21:07:29.797Z,98507.66
2022-10-22T21:09:56.227Z,98504.13
2022-10-22T21:12:22.683Z,98497.75
2022-10-22T21:14:49.183Z,98503.28
2022-10-22T21:17:15.734Z,98496.22
2022-10-22T21:19:42.191Z,98502.06
2022-10-22T21:22:08.674Z,98499.66
2022-10-22T21:24:35.118Z,98498.91
2022-10-22T21:27:03.819Z,98496.47
2022-10-22T21:29:30.314Z,98506.97
2022-10-22T21:31:56.765Z,98506.00
2022-10-22T21:34:23.289Z,98499.50
2022-10-22T21:36:49.837Z,98501.56
2022-10-22T21:39:16.278Z,98507.59
2022-10-22T21:41:42.733Z,98510.94
2022-10-22T21:44:09.202Z,98511.81
2022-10-22T21:46:35.701Z,98516.78
2022-10-22T21:49:04.483Z,98513.97
2022-10-22T21:51:35.060Z,98509.88
2022-10-22T21:54:01.793Z,98503.84
2022-10-22T21:56:34.861Z,98506.88
2022-10-22T21:59:04.612Z,98509.19
2022-10-22T22:01:31.301Z,98509.72
2022-10-22T22:03:58.532Z,98502.44
2022-10-22T22:06:29.563Z,98491.25
2022-10-22T22:08:57.906Z,98490.22
2022-10-22T22:11:27.418Z,98499.59
2022-10-22T22:13:57.587Z,98494.53
2022-10-22T22:16:30.963Z,98492.22
2022-10-22T22:19:05.965Z,98489.59
2022-10-22T22:21:33.770Z,98488.09
2022-10-22T22:24:00.540Z,98489.78
2022-10-22T22:26:30.076Z,98490.53
2022-10-22T22:28:58.972Z,98499.78
2022-10-22T22:31:32.542Z,98490.34
2022-10-22T22:34:15.154Z,98496.22
2022-10-22T22:36:45.902Z,98483.81
2022-10-22T22:39:18.711Z,98478.03
2022-10-22T22:41:46.291Z,98480.00
2022-10-22T22:44:13.833Z,98476.63
2022-10-22T22:46:40.661Z,98483.19
2022-10-22T22:49:07.980Z,98477.28
2022-10-22T22:51:34.851Z,98477.06
2022-10-22T22:54:02.182Z,98477.38
2022-10-22T22:56:32.102Z,98471.59
2022-10-22T22:58:58.800Z,98475.59
2022-10-22T23:01:32.559Z,98482.13
2022-10-22T23:04:03.278Z,98476.66
2022-10-22T23:06:35.790Z,98482.66
2022-10-22T23:09:03.866Z,98476.97
2022-10-22T23:11:30.619Z,98475.16
2022-10-22T23:14:01.492Z,98475.59
2022-10-22T23:16:32.387Z,98463.78
2022-10-22T23:19:00.189Z,98458.72
2022-10-22T23:21:33.614Z,98463.69
2022-10-22T23:24:04.780Z,98458.44
2022-10-22T23:26:35.919Z,98454.66
2022-10-22T23:29:15.766Z,98460.75
2022-10-22T23:31:43.902Z,98450.50
2022-10-22T23:34:15.560Z,98454.78
2022-10-22T23:36:42.261Z,98455.31
2022-10-22T23:39:17.070Z,98460.38
2022-10-22T23:41:44.053Z,98465.88
2022-10-22T23:44:11.249Z,98452.19
2022-10-22T23:46:38.846Z,98452.81
2022-10-22T23:49:08.343Z,98451.84
2022-10-22T23:51:35.730Z,98451.53
2022-10-22T23:54:07.268Z,98450.34
2022-10-22T23:56:34.576Z,98454.56
2022-10-22T23:59:01.282Z,98459.84
